createdAt,value
2023-05-19T00:00:25.076Z,100.00
2023-05-19T00:02:51.965Z,100.00
2023-05-19T00:05:19.189Z,100.00
2023-05-19T00:07:46.198Z,100.00
2023-05-19T00:10:13.441Z,100.00
2023-05-19T00:12:40.382Z,100.00
2023-05-19T00:15:07.820Z,100.00
2023-05-19T00:17:34.519Z,100.00
2023-05-19T00:20:01.552Z,100.00
2023-05-19T00:22:28.249Z,100.00
2023-05-19T00:24:54.852Z,100.00
2023-05-19T00:27:21.442Z,100.00
2023-05-19T00:29:48.043Z,100.00
2023-05-19T00:32:15.736Z,100.00
2023-05-19T00:34:44.854Z,100.00
2023-05-19T00:37:11.624Z,100.00
2023-05-19T00:39:38.213Z,100.00
2023-05-19T00:42:05.861Z,100.00
2023-05-19T00:44:32.446Z,100.00
2023-05-19T00:46:59.225Z,100.00
2023-05-19T00:49:26.695Z,100.00
2023-05-19T00:51:53.315Z,100.00
2023-05-19T00:54:20.715Z,100.00
2023-05-19T00:56:47.523Z,100.00
2023-05-19T00:59:14.243Z,100.00
2023-05-19T01:01:40.925Z,100.00
2023-05-19T01:04:10.031Z,100.00
2023-05-19T01:06:39.598Z,100.00
2023-05-19T01:09:06.330Z,100.00
2023-05-19T01:11:36.078Z,100.00
2023-05-19T01:14:02.725Z,100.00
2023-05-19T01:16:32.240Z,100.00
2023-05-19T01:19:10.897Z,100.00
2023-05-19T01:22:07.450Z,100.00
2023-05-19T01:24:37.535Z,100.00
2023-05-19T01:27:24.968Z,100.00
2023-05-19T01:30:13.072Z,100.00
2023-05-19T01:32:41.909Z,100.00
2023-05-19T01:35:09.886Z,100.00
2023-05-19T01:37:37.861Z,100.00
2023-05-19T01:40:08.893Z,100.00
2023-05-19T01:42:39.908Z,100.00
2023-05-19T01:45:20.351Z,100.00
2023-05-19T01:47:52.844Z,100.00
2023-05-19T01:50:21.106Z,100.00
2023-05-19T01:52:49.718Z,100.00
2023-05-19T01:55:16.888Z,100.00
2023-05-19T01:57:54.708Z,100.00
2023-05-19T02:00:40.708Z,100.00
2023-05-19T02:03:07.432Z,100.00
2023-05-19T02:05:46.243Z,100.00
2023-05-19T02:08:20.528Z,100.00
2023-05-19T02:10:58.149Z,100.00
2023-05-19T02:13:28.725Z,100.00
2023-05-19T02:15:59.211Z,100.00
2023-05-19T02:18:29.938Z,100.00
2023-05-19T02:20:56.676Z,100.00
2023-05-19T02:23:24.276Z,100.00
2023-05-19T02:25:50.974Z,100.00
2023-05-19T02:28:18.411Z,100.00
2023-05-19T02:30:45.278Z,100.00
2023-05-19T02:33:12.945Z,100.00
2023-05-19T02:35:39.664Z,100.00
2023-05-19T02:38:07.242Z,100.00
2023-05-19T02:40:34.101Z,100.00
2023-05-19T02:43:01.712Z,100.00
2023-05-19T02:45:29.246Z,100.00
2023-05-19T02:47:57.426Z,100.00
2023-05-19T02:50:25.204Z,100.00
2023-05-19T02:52:52.794Z,100.00
2023-05-19T02:55:19.712Z,100.00
2023-05-19T02:57:46.540Z,100.00
2023-05-19T03:00:13.683Z,100.00
2023-05-19T03:03:10.398Z,100.00
2023-05-19T03:05:37.281Z,100.00
2023-05-19T03:08:04.104Z,100.00
2023-05-19T03:10:31.046Z,100.00
2023-05-19T03:12:57.793Z,100.00
2023-05-19T03:15:24.499Z,100.00
2023-05-19T03:17:52.019Z,100.00
2023-05-19T03:20:19.058Z,100.00
2023-05-19T03:22:45.693Z,100.00
2023-05-19T03:25:12.430Z,100.00
2023-05-19T03:27:39.068Z,100.00
2023-05-19T03:30:06.897Z,100.00
2023-05-19T03:32:38.957Z,100.00
2023-05-19T03:35:06.167Z,100.00
2023-05-19T03:37:33.361Z,100.00
2023-05-19T03:40:00.566Z,100.00
2023-05-19T03:42:27.908Z,100.00
2023-05-19T03:44:54.547Z,100.00
2023-05-19T03:47:21.406Z,100.00
2023-05-19T03:49:48.099Z,100.00
2023-05-19T03:52:34.971Z,100.00
2023-05-19T03:55:20.255Z,100.00
2023-05-19T03:57:47.686Z,100.00
2023-05-19T04:00:15.064Z,100.00
2023-05-19T04:02:42.087Z,100.00
2023-05-19T04:05:09.383Z,100.00
2023-05-19T04:07:37.291Z,100.00
2023-05-19T04:10:05.797Z,100.00
2023-05-19T04:12:33.114Z,100.00
2023-05-19T04:14:59.918Z,100.00
2023-05-19T04:17:27.654Z,100.00
2023-05-19T04:19:55.287Z,100.00
2023-05-19T04:22:22.513Z,100.00
2023-05-19T04:24:50.516Z,100.00
2023-05-19T04:27:17.821Z,100.00
2023-05-19T04:29:46.136Z,100.00
2023-05-19T04:32:17.470Z,100.00
2023-05-19T04:34:46.451Z,100.00
2023-05-19T04:37:19.984Z,100.00
2023-05-19T04:39:46.854Z,100.00
2023-05-19T04:42:14.529Z,100.00
2023-05-19T04:44:41.225Z,100.00
2023-05-19T04:47:09.053Z,100.00
2023-05-19T04:49:39.027Z,100.00
2023-05-19T04:52:07.574Z,100.00
2023-05-19T04:54:37.933Z,100.00
2023-05-19T04:57:05.630Z,100.00
2023-05-19T04:59:35.562Z,100.00
2023-05-19T05:02:02.458Z,100.00
2023-05-19T05:04:31.460Z,100.00
2023-05-19T05:06:58.586Z,100.00
2023-05-19T05:09:26.328Z,100.00
2023-05-19T05:11:54.230Z,100.00
2023-05-19T05:14:21.140Z,100.00
2023-05-19T05:16:48.290Z,100.00
2023-05-19T05:19:22.205Z,100.00
2023-05-19T05:21:49.297Z,100.00
2023-05-19T05:24:16.945Z,100.00
2023-05-19T05:26:49.454Z,100.00
2023-05-19T05:29:16.796Z,100.00
2023-05-19T05:31:43.423Z,100.00
2023-05-19T05:34:10.887Z,100.00
2023-05-19T05:36:38.590Z,100.00
2023-05-19T05:39:09.981Z,100.00
2023-05-19T05:41:37.945Z,100.00
2023-05-19T05:44:11.537Z,100.00
2023-05-19T05:46:41.471Z,100.00
2023-05-19T05:49:09.159Z,100.00
2023-05-19T05:51:36.304Z,100.00
2023-05-19T05:54:06.457Z,100.00
2023-05-19T05:56:39.116Z,100.00
2023-05-19T05:59:08.207Z,100.00
2023-05-19T06:01:38.266Z,100.00
2023-05-19T06:04:08.246Z,100.00
2023-05-19T06:06:36.035Z,100.00
2023-05-19T06:09:03.067Z,100.00
2023-05-19T06:11:33.157Z,100.00
2023-05-19T06:14:00.199Z,100.00
2023-05-19T06:16:51.816Z,100.00
2023-05-19T06:19:20.058Z,100.00
2023-05-19T06:21:46.850Z,100.00
2023-05-19T06:24:14.681Z,100.00
2023-05-19T06:26:41.837Z,100.00
2023-05-19T06:29:08.674Z,100.00
2023-05-19T06:31:35.637Z,100.00
2023-05-19T06:34:12.379Z,100.00
2023-05-19T06:36:41.344Z,100.00
2023-05-19T06:39:08.600Z,100.00
2023-05-19T06:41:37.340Z,100.00
2023-05-19T06:44:04.481Z,100.00
2023-05-19T06:46:33.365Z,100.00
2023-05-19T06:49:00.160Z,100.00
2023-05-19T06:51:29.773Z,100.00
2023-05-19T06:53:57.086Z,100.00
2023-05-19T06:56:24.285Z,100.00
2023-05-19T06:58:51.241Z,100.00
2023-05-19T07:01:20.517Z,100.00
2023-05-19T07:03:53.289Z,100.00
2023-05-19T07:06:21.115Z,100.00
2023-05-19T07:08:48.180Z,100.00
2023-05-19T07:11:15.260Z,100.00
2023-05-19T07:13:42.921Z,100.00
2023-05-19T07:16:10.279Z,100.00
2023-05-19T07:18:36.996Z,100.00
2023-05-19T07:21:03.847Z,100.00
2023-05-19T07:23:31.283Z,100.00
2023-05-19T07:25:58.097Z,100.00
2023-05-19T07:28:24.740Z,100.00
2023-05-19T07:30:51.926Z,100.00
2023-05-19T07:33:18.658Z,100.00
2023-05-19T07:35:46.254Z,100.00
2023-05-19T07:38:12.877Z,100.00
2023-05-19T07:40:39.568Z,100.00
2023-05-19T07:43:06.318Z,100.00
2023-05-19T07:45:34.365Z,100.00
2023-05-19T07:48:01.127Z,100.00
2023-05-19T07:50:30.148Z,100.00
2023-05-19T07:52:56.985Z,100.00
2023-05-19T07:55:23.662Z,100.00
2023-05-19T07:57:51.157Z,100.00
2023-05-19T08:00:18.137Z,100.00
2023-05-19T08:02:44.955Z,100.00
2023-05-19T08:05:11.704Z,100.00
2023-05-19T08:07:38.328Z,100.00
2023-05-19T08:10:05.240Z,100.00
2023-05-19T08:12:32.440Z,100.00
2023-05-19T08:15:01.318Z,100.00
2023-05-19T08:17:28.549Z,100.00
2023-05-19T08:19:55.261Z,100.00
2023-05-19T08:22:21.955Z,96.74
2023-05-19T08:24:49.794Z,98.42
2023-05-19T08:27:16.739Z,95.11
2023-05-19T08:29:43.488Z,91.69
2023-05-19T08:32:12.971Z,91.48
2023-05-19T08:34:39.891Z,89.40
2023-05-19T08:37:07.017Z,87.89
2023-05-19T08:39:34.802Z,87.71
2023-05-19T08:42:02.427Z,85.91
2023-05-19T08:44:30.770Z,84.24
2023-05-19T08:47:03.325Z,84.35
2023-05-19T08:49:35.638Z,81.71
2023-05-19T08:52:17.565Z,81.01
2023-05-19T08:54:51.021Z,82.16
2023-05-19T08:57:18.105Z,81.30
2023-05-19T08:59:44.868Z,78.33
2023-05-19T09:02:13.325Z,76.72
2023-05-19T09:04:40.392Z,76.97
2023-05-19T09:07:07.084Z,75.77
2023-05-19T09:09:33.720Z,76.60
2023-05-19T09:12:00.911Z,81.11
2023-05-19T09:14:27.545Z,79.69
2023-05-19T09:16:54.165Z,81.21
2023-05-19T09:19:21.314Z,82.74
2023-05-19T09:21:59.947Z,85.03
2023-05-19T09:24:27.092Z,84.16
2023-05-19T09:26:58.040Z,82.30
2023-05-19T09:29:26.516Z,82.56
2023-05-19T09:31:56.030Z,81.58
2023-05-19T09:34:24.850Z,78.68
2023-05-19T09:36:53.497Z,78.04
2023-05-19T09:39:25.319Z,78.35
2023-05-19T09:41:53.901Z,79.23
2023-05-19T09:44:20.997Z,81.34
2023-05-19T09:46:51.197Z,82.35
2023-05-19T09:49:25.830Z,85.16
2023-05-19T09:51:56.729Z,84.63
2023-05-19T09:54:24.856Z,85.72
2023-05-19T09:57:02.028Z,84.04
2023-05-19T09:59:32.356Z,85.41
2023-05-19T10:02:01.300Z,83.81
2023-05-19T10:04:29.737Z,82.48
2023-05-19T10:06:59.652Z,80.49
2023-05-19T10:09:30.582Z,79.59
2023-05-19T10:11:58.164Z,79.03
2023-05-19T10:14:27.237Z,79.29
2023-05-19T10:16:55.599Z,80.41
2023-05-19T10:19:24.387Z,81.33
2023-05-19T10:21:51.802Z,79.92
2023-05-19T10:24:18.973Z,81.03
2023-05-19T10:26:48.148Z,85.91
2023-05-19T10:29:17.575Z,88.14
2023-05-19T10:31:45.314Z,87.20
2023-05-19T10:34:42.872Z,87.91
2023-05-19T10:37:31.249Z,86.05
2023-05-19T10:39:58.388Z,86.29
2023-05-19T10:42:41.222Z,88.31
2023-05-19T10:45:18.407Z,86.00
2023-05-19T10:47:45.263Z,84.42
2023-05-19T10:50:12.256Z,85.68
2023-05-19T10:52:40.290Z,83.78
2023-05-19T10:55:15.715Z,82.08
2023-05-19T10:57:54.322Z,80.32
2023-05-19T11:00:27.960Z,79.61
2023-05-19T11:02:57.926Z,80.04
2023-05-19T11:05:30.798Z,81.91
2023-05-19T11:08:06.104Z,84.96
2023-05-19T11:10:32.763Z,83.51
2023-05-19T11:12:59.568Z,81.36
2023-05-19T11:15:27.696Z,81.82
2023-05-19T11:17:54.744Z,81.26
2023-05-19T11:20:25.682Z,81.25
2023-05-19T11:23:09.275Z,84.22
2023-05-19T11:25:43.090Z,80.68
2023-05-19T11:28:12.428Z,82.74
2023-05-19T11:30:42.365Z,84.04
2023-05-19T11:33:09.159Z,85.18
2023-05-19T11:35:37.363Z,86.75
2023-05-19T11:38:04.224Z,84.18
2023-05-19T11:40:31.118Z,83.79
2023-05-19T11:42:58.050Z,86.21
2023-05-19T11:45:28.963Z,83.89
2023-05-19T11:48:02.517Z,82.77
2023-05-19T11:50:31.704Z,80.91
2023-05-19T11:53:00.212Z,80.70
2023-05-19T11:55:27.202Z,81.65
2023-05-19T11:58:05.574Z,82.60
2023-05-19T12:00:37.934Z,83.78
2023-05-19T12:03:05.352Z,82.51
2023-05-19T12:05:35.437Z,87.56
2023-05-19T12:08:06.303Z,83.88
2023-05-19T12:10:34.351Z,83.67
2023-05-19T12:13:02.111Z,85.29
2023-05-19T12:15:28.844Z,85.29
2023-05-19T12:18:00.878Z,86.13
2023-05-19T12:20:29.038Z,83.80
2023-05-19T12:22:56.369Z,79.06
2023-05-19T12:25:23.807Z,76.75
2023-05-19T12:27:52.768Z,77.47
2023-05-19T12:30:26.249Z,72.52
2023-05-19T12:32:54.233Z,71.82
2023-05-19T12:35:23.292Z,71.26
2023-05-19T12:37:50.709Z,73.22
2023-05-19T12:40:17.558Z,73.80
2023-05-19T12:42:48.795Z,75.69
2023-05-19T12:45:15.520Z,74.01
2023-05-19T12:47:42.177Z,71.02
2023-05-19T12:50:10.214Z,69.00
2023-05-19T12:52:45.393Z,66.95
2023-05-19T12:55:13.979Z,65.50
2023-05-19T12:57:42.854Z,66.03
2023-05-19T13:00:17.497Z,64.89
2023-05-19T13:03:02.954Z,64.98
2023-05-19T13:05:30.899Z,63.88
2023-05-19T13:08:13.693Z,65.50
2023-05-19T13:10:41.789Z,64.45
2023-05-19T13:13:09.369Z,64.74
2023-05-19T13:15:38.666Z,68.37
2023-05-19T13:18:07.150Z,68.22
2023-05-19T13:20:34.339Z,67.86
2023-05-19T13:23:01.801Z,65.79
2023-05-19T13:25:28.469Z,64.25
2023-05-19T13:27:55.196Z,65.48
2023-05-19T13:30:22.677Z,65.27
2023-05-19T13:32:49.633Z,64.29
2023-05-19T13:35:16.376Z,63.79
2023-05-19T13:37:43.181Z,62.56
2023-05-19T13:40:10.794Z,57.73
2023-05-19T13:42:37.952Z,52.30
2023-05-19T13:45:05.219Z,47.79
2023-05-19T13:47:31.854Z,46.66
2023-05-19T13:49:58.637Z,44.27
2023-05-19T13:52:27.547Z,43.47
2023-05-19T13:54:56.640Z,40.30
2023-05-19T13:57:26.530Z,38.07
2023-05-19T14:00:01.828Z,36.01
2023-05-19T14:02:39.304Z,33.48
2023-05-19T14:05:07.231Z,33.64
2023-05-19T14:07:35.012Z,32.62
2023-05-19T14:10:06.889Z,32.29
2023-05-19T14:12:41.464Z,32.27
2023-05-19T14:15:19.609Z,32.01
2023-05-19T14:17:46.314Z,32.77
2023-05-19T14:20:13.230Z,34.71
2023-05-19T14:22:39.815Z,39.30
2023-05-19T14:25:07.166Z,42.96
2023-05-19T14:27:33.777Z,46.16
2023-05-19T14:30:00.509Z,49.56
2023-05-19T14:32:30.080Z,51.30
2023-05-19T14:34:57.075Z,53.20
2023-05-19T14:37:24.161Z,54.19
2023-05-19T14:39:50.825Z,55.05
2023-05-19T14:42:17.430Z,56.76
2023-05-19T14:44:44.075Z,56.92
2023-05-19T14:47:12.334Z,57.54
2023-05-19T14:49:39.082Z,58.28
2023-05-19T14:52:05.816Z,57.88
2023-05-19T14:54:32.454Z,58.08
2023-05-19T14:56:59.032Z,57.97
2023-05-19T14:59:25.946Z,59.37
2023-05-19T15:01:52.556Z,58.81
2023-05-19T15:04:19.253Z,59.00
2023-05-19T15:06:48.203Z,59.06
2023-05-19T15:09:19.125Z,59.30
2023-05-19T15:11:45.755Z,59.65
2023-05-19T15:14:12.383Z,59.80
2023-05-19T15:16:38.970Z,61.28
2023-05-19T15:19:05.761Z,60.68
2023-05-19T15:21:32.543Z,60.86
2023-05-19T15:23:59.198Z,61.11
2023-05-19T15:26:28.301Z,61.61
2023-05-19T15:28:56.269Z,62.93
2023-05-19T15:31:22.985Z,63.23
2023-05-19T15:33:49.683Z,62.79
2023-05-19T15:36:17.174Z,63.08
2023-05-19T15:38:43.964Z,63.30
2023-05-19T15:41:11.064Z,64.09
2023-05-19T15:43:37.963Z,63.17
2023-05-19T15:46:05.127Z,63.58
2023-05-19T15:48:32.352Z,63.48
2023-05-19T15:50:59.592Z,64.50
2023-05-19T15:53:26.689Z,65.73
2023-05-19T15:55:53.333Z,66.53
2023-05-19T15:58:20.020Z,66.46
2023-05-19T16:00:46.705Z,68.12
2023-05-19T16:03:13.350Z,69.24
2023-05-19T16:05:40.028Z,70.52
2023-05-19T16:08:08.452Z,72.68
2023-05-19T16:10:35.570Z,75.49
2023-05-19T16:13:02.371Z,76.71
2023-05-19T16:15:28.983Z,77.71
2023-05-19T16:17:55.811Z,79.76
2023-05-19T16:20:26.745Z,80.64
2023-05-19T16:22:54.209Z,80.22
2023-05-19T16:25:21.071Z,81.92
2023-05-19T16:27:47.878Z,83.12
2023-05-19T16:30:14.697Z,84.73
2023-05-19T16:32:41.393Z,85.55
2023-05-19T16:35:08.660Z,86.23
2023-05-19T16:37:35.362Z,86.80
2023-05-19T16:40:02.088Z,87.00
2023-05-19T16:42:28.706Z,87.74
2023-05-19T16:44:55.555Z,88.61
2023-05-19T16:47:22.149Z,87.51
2023-05-19T16:49:48.765Z,87.48
2023-05-19T16:52:15.407Z,90.16
2023-05-19T16:54:42.086Z,91.90
2023-05-19T16:57:09.801Z,92.54
2023-05-19T16:59:36.525Z,94.16
2023-05-19T17:02:03.462Z,95.23
2023-05-19T17:04:31.030Z,95.24
2023-05-19T17:06:57.780Z,94.77
2023-05-19T17:09:26.227Z,93.76
2023-05-19T17:11:53.700Z,93.39
2023-05-19T17:14:20.890Z,93.51
2023-05-19T17:16:47.571Z,93.78
2023-05-19T17:19:14.424Z,94.09
2023-05-19T17:21:41.480Z,93.52
2023-05-19T17:24:08.076Z,93.85
2023-05-19T17:26:34.738Z,94.10
2023-05-19T17:29:01.338Z,94.96
2023-05-19T17:31:27.909Z,96.03
2023-05-19T17:33:54.551Z,96.59
2023-05-19T17:36:21.763Z,95.62
2023-05-19T17:38:48.330Z,95.80
2023-05-19T17:41:15.026Z,96.47
2023-05-19T17:43:41.863Z,98.00
2023-05-19T17:46:08.711Z,99.52
2023-05-19T17:48:36.330Z,99.45
2023-05-19T17:51:04.593Z,100.00
2023-05-19T17:53:33.082Z,100.00
2023-05-19T17:56:01.463Z,100.00
2023-05-19T17:58:28.839Z,100.00
2023-05-19T18:00:56.027Z,100.00
2023-05-19T18:03:23.096Z,100.00
2023-05-19T18:05:51.058Z,100.00
2023-05-19T18:08:18.274Z,100.00
2023-05-19T18:10:46.110Z,100.00
2023-05-19T18:13:15.720Z,100.00
2023-05-19T18:15:42.526Z,100.00
2023-05-19T18:18:10.925Z,100.00
2023-05-19T18:20:44.244Z,100.00
2023-05-19T18:23:11.351Z,100.00
2023-05-19T18:25:38.149Z,100.00
2023-05-19T18:28:05.022Z,100.00
2023-05-19T18:30:31.909Z,100.00
2023-05-19T18:33:02.103Z,100.00
2023-05-19T18:35:28.999Z,100.00
2023-05-19T18:37:56.729Z,100.00
2023-05-19T18:40:23.612Z,100.00
2023-05-19T18:42:50.560Z,100.00
2023-05-19T18:45:17.315Z,100.00
2023-05-19T18:47:43.997Z,100.00
2023-05-19T18:50:10.793Z,100.00
2023-05-19T18:52:37.451Z,100.00
2023-05-19T18:55:04.327Z,100.00
2023-05-19T18:57:31.033Z,100.00
2023-05-19T18:59:58.107Z,100.00
2023-05-19T19:02:24.726Z,100.00
2023-05-19T19:04:51.413Z,100.00
2023-05-19T19:07:18.074Z,100.00
2023-05-19T19:09:44.710Z,100.00
2023-05-19T19:12:11.324Z,100.00
2023-05-19T19:14:38.525Z,100.00
2023-05-19T19:17:05.329Z,100.00
2023-05-19T19:19:32.270Z,100.00
2023-05-19T19:21:59.056Z,100.00
2023-05-19T19:24:26.536Z,100.00
2023-05-19T19:26:53.147Z,100.00
2023-05-19T19:29:21.846Z,100.00
2023-05-19T19:31:48.760Z,100.00
2023-05-19T19:34:15.670Z,100.00
2023-05-19T19:36:42.308Z,100.00
2023-05-19T19:39:09.477Z,100.00
2023-05-19T19:41:36.671Z,100.00
2023-05-19T19:44:03.595Z,100.00
2023-05-19T19:46:30.282Z,100.00
2023-05-19T19:48:59.217Z,100.00
2023-05-19T19:51:26.743Z,100.00
2023-05-19T19:53:53.366Z,100.00
2023-05-19T19:56:20.386Z,100.00
2023-05-19T19:58:46.969Z,100.00
2023-05-19T20:01:13.600Z,100.00
2023-05-19T20:03:40.266Z,100.00
2023-05-19T20:06:07.637Z,100.00
2023-05-19T20:08:34.259Z,100.00
2023-05-19T20:11:00.916Z,100.00
2023-05-19T20:13:27.527Z,100.00
2023-05-19T20:15:54.256Z,100.00
2023-05-19T20:18:20.903Z,100.00
2023-05-19T20:20:47.575Z,100.00
2023-05-19T20:23:16.223Z,100.00
2023-05-19T20:25:54.790Z,100.00
2023-05-19T20:28:29.661Z,100.00
2023-05-19T20:30:56.300Z,100.00
2023-05-19T20:33:22.973Z,100.00
2023-05-19T20:35:49.585Z,100.00
2023-05-19T20:38:16.351Z,100.00
2023-05-19T20:40:43.021Z,100.00
2023-05-19T20:43:09.950Z,100.00
2023-05-19T20:45:36.798Z,100.00
2023-05-19T20:48:03.893Z,100.00
2023-05-19T20:50:31.865Z,100.00
2023-05-19T20:52:58.710Z,100.00
2023-05-19T20:55:25.496Z,100.00
2023-05-19T20:57:52.164Z,100.00
2023-05-19T21:00:19.023Z,100.00
2023-05-19T21:02:45.732Z,100.00
2023-05-19T21:05:12.558Z,100.00
2023-05-19T21:07:39.275Z,100.00
2023-05-19T21:10:06.524Z,100.00
2023-05-19T21:12:34.289Z,100.00
2023-05-19T21:15:01.882Z,100.00
2023-05-19T21:17:28.643Z,100.00
2023-05-19T21:20:00.267Z,100.00
2023-05-19T21:22:27.419Z,100.00
2023-05-19T21:24:54.400Z,100.00
2023-05-19T21:27:21.382Z,100.00
2023-05-19T21:29:52.859Z,100.00
2023-05-19T21:32:21.179Z,100.00
2023-05-19T21:34:47.816Z,100.00
2023-05-19T21:37:16.350Z,100.00
2023-05-19T21:39:44.360Z,100.00
2023-05-19T21:42:11.144Z,100.00
2023-05-19T21:44:37.836Z,100.00
2023-05-19T21:47:04.511Z,100.00
2023-05-19T21:49:31.471Z,100.00
2023-05-19T21:51:58.385Z,100.00
2023-05-19T21:54:27.173Z,100.00
2023-05-19T21:56:53.816Z,100.00
2023-05-19T21:59:23.171Z,100.00
2023-05-19T22:01:51.430Z,100.00
2023-05-19T22:04:21.068Z,100.00
2023-05-19T22:06:47.765Z,100.00
2023-05-19T22:09:14.399Z,100.00
2023-05-19T22:11:41.261Z,100.00
2023-05-19T22:14:07.931Z,100.00
2023-05-19T22:16:34.942Z,100.00
2023-05-19T22:19:01.702Z,100.00
2023-05-19T22:21:28.473Z,100.00
2023-05-19T22:23:55.105Z,100.00
2023-05-19T22:26:22.127Z,100.00
2023-05-19T22:28:50.520Z,100.00
2023-05-19T22:31:17.659Z,100.00
2023-05-19T22:33:44.373Z,100.00
2023-05-19T22:36:11.131Z,100.00
2023-05-19T22:38:37.857Z,100.00
2023-05-19T22:41:04.689Z,100.00
2023-05-19T22:43:31.454Z,100.00
2023-05-19T22:45:58.145Z,100.00
2023-05-19T22:48:26.286Z,100.00
2023-05-19T22:50:52.885Z,100.00
2023-05-19T22:53:19.499Z,100.00
2023-05-19T22:55:46.235Z,100.00
2023-05-19T22:58:12.836Z,100.00
2023-05-19T23:00:39.427Z,100.00
2023-05-19T23:03:06.165Z,100.00
2023-05-19T23:05:33.025Z,100.00
2023-05-19T23:07:59.739Z,100.00
2023-05-19T23:10:26.386Z,100.00
2023-05-19T23:12:53.085Z,100.00
2023-05-19T23:15:19.770Z,100.00
2023-05-19T23:17:46.420Z,100.00
2023-05-19T23:20:13.490Z,100.00
2023-05-19T23:22:40.126Z,100.00
2023-05-19T23:25:07.859Z,100.00
2023-05-19T23:27:35.596Z,100.00
2023-05-19T23:30:02.901Z,100.00
2023-05-19T23:32:29.611Z,100.00
2023-05-19T23:34:56.328Z,100.00
2023-05-19T23:37:22.957Z,100.00
2023-05-19T23:39:49.554Z,100.00
2023-05-19T23:42:16.308Z,100.00
2023-05-19T23:44:42.955Z,100.00
2023-05-19T23:47:10.843Z,100.00
2023-05-19T23:49:37.506Z,100.00
2023-05-19T23:52:04.129Z,100.00
2023-05-19T23:54:31.065Z,100.00
2023-05-19T23:56:58.476Z,100.00
2023-05-19T23:59:25.328Z,100.00
